createdAt,value
2023-05-05T00:02:23.710Z,12.30
2023-05-05T00:04:50.308Z,12.20
2023-05-05T00:07:16.993Z,12.20
2023-05-05T00:09:43.540Z,12.20
2023-05-05T00:12:10.110Z,12.20
2023-05-05T00:14:36.648Z,12.20
2023-05-05T00:17:04.084Z,12.30
2023-05-05T00:19:31.171Z,12.30
2023-05-05T00:21:57.694Z,12.30
2023-05-05T00:24:24.227Z,12.30
2023-05-05T00:26:51.072Z,12.20
2023-05-05T00:29:17.642Z,12.20
2023-05-05T00:31:44.207Z,12.20
2023-05-05T00:34:11.029Z,12.20
2023-05-05T00:36:37.535Z,12.20
2023-05-05T00:39:04.445Z,12.20
2023-05-05T00:41:31.517Z,12.10
2023-05-05T00:43:58.084Z,12.10
2023-05-05T00:46:26.238Z,12.10
2023-05-05T00:48:53.394Z,12.10
2023-05-05T00:51:20.699Z,12.10
2023-05-05T00:53:50.549Z,12.10
2023-05-05T00:56:17.394Z,12.10
2023-05-05T00:58:44.246Z,12.10
2023-05-05T01:01:14.153Z,12.00
2023-05-05T01:03:43.864Z,12.00
2023-05-05T01:06:15.534Z,12.00
2023-05-05T01:08:50.096Z,12.00
2023-05-05T01:11:27.046Z,12.00
2023-05-05T01:14:12.672Z,12.00
2023-05-05T01:16:41.743Z,12.00
2023-05-05T01:19:27.414Z,12.00
2023-05-05T01:21:56.336Z,12.10
2023-05-05T01:24:25.999Z,12.10
2023-05-05T01:27:11.522Z,12.00
2023-05-05T01:29:40.820Z,12.10
2023-05-05T01:32:08.528Z,12.10
2023-05-05T01:34:48.153Z,12.10
2023-05-05T01:37:37.779Z,12.10
2023-05-05T01:40:05.862Z,12.10
2023-05-05T01:42:33.861Z,12.10
2023-05-05T01:45:01.238Z,12.10
2023-05-05T01:47:28.650Z,12.20
2023-05-05T01:49:55.188Z,12.20
2023-05-05T01:52:22.704Z,12.20
2023-05-05T01:54:49.874Z,12.20
2023-05-05T01:57:16.585Z,12.30
2023-05-05T01:59:43.426Z,12.30
2023-05-05T02:02:11.204Z,12.30
2023-05-05T02:04:40.996Z,12.30
2023-05-05T02:07:08.205Z,12.30
2023-05-05T02:09:36.190Z,12.40
2023-05-05T02:12:03.777Z,12.40
2023-05-05T02:14:30.434Z,12.30
2023-05-05T02:16:58.029Z,12.30
2023-05-05T02:19:28.407Z,12.30
2023-05-05T02:21:55.082Z,12.30
2023-05-05T02:24:21.692Z,12.30
2023-05-05T02:26:49.997Z,12.30
2023-05-05T02:29:19.174Z,12.20
2023-05-05T02:31:47.392Z,12.10
2023-05-05T02:34:16.319Z,12.10
2023-05-05T02:36:44.582Z,12.10
2023-05-05T02:39:13.451Z,12.10
2023-05-05T02:41:41.271Z,12.10
2023-05-05T02:44:09.394Z,12.00
2023-05-05T02:46:37.177Z,12.00
2023-05-05T02:49:03.730Z,12.00
2023-05-05T02:51:30.259Z,11.90
2023-05-05T02:53:56.804Z,11.90
2023-05-05T02:56:31.602Z,11.80
2023-05-05T02:59:09.892Z,11.80
2023-05-05T03:01:46.355Z,11.80
2023-05-05T03:04:17.542Z,11.80
2023-05-05T03:06:47.265Z,11.70
2023-05-05T03:09:23.001Z,11.70
2023-05-05T03:11:53.786Z,11.70
2023-05-05T03:14:21.336Z,11.70
2023-05-05T03:16:48.381Z,11.70
2023-05-05T03:19:16.720Z,11.60
2023-05-05T03:21:43.435Z,11.60
2023-05-05T03:24:17.182Z,11.50
2023-05-05T03:26:44.342Z,11.50
2023-05-05T03:29:10.968Z,11.50
2023-05-05T03:31:37.582Z,11.50
2023-05-05T03:34:04.246Z,11.50
2023-05-05T03:36:30.786Z,11.50
2023-05-05T03:38:58.000Z,11.50
2023-05-05T03:41:24.853Z,11.60
2023-05-05T03:43:51.467Z,11.60
2023-05-05T03:46:18.168Z,11.60
2023-05-05T03:48:44.968Z,11.60
2023-05-05T03:51:12.348Z,11.60
2023-05-05T03:53:39.057Z,11.60
2023-05-05T03:56:05.590Z,11.60
2023-05-05T03:58:32.220Z,11.60
2023-05-05T04:00:58.884Z,11.60
2023-05-05T04:03:25.612Z,11.70
2023-05-05T04:05:52.405Z,11.70
2023-05-05T04:08:18.942Z,11.70
2023-05-05T04:10:45.689Z,11.80
2023-05-05T04:13:12.341Z,11.80
2023-05-05T04:15:43.683Z,11.90
2023-05-05T04:18:10.306Z,12.00
2023-05-05T04:20:36.877Z,12.00
2023-05-05T04:23:03.425Z,12.00
2023-05-05T04:25:30.026Z,12.10
2023-05-05T04:27:56.552Z,12.20
2023-05-05T04:30:23.161Z,12.20
2023-05-05T04:32:49.718Z,12.30
2023-05-05T04:35:16.417Z,12.40
2023-05-05T04:37:42.962Z,12.40
2023-05-05T04:40:09.761Z,12.60
2023-05-05T04:42:36.639Z,12.80
2023-05-05T04:45:03.476Z,13.00
2023-05-05T04:47:30.087Z,13.20
2023-05-05T04:49:56.697Z,13.30
2023-05-05T04:52:23.217Z,13.50
2023-05-05T04:54:49.788Z,13.60
2023-05-05T04:57:16.317Z,13.70
2023-05-05T04:59:42.852Z,13.80
2023-05-05T05:02:09.407Z,14.00
2023-05-05T05:04:36.057Z,14.10
2023-05-05T05:07:02.583Z,14.30
2023-05-05T05:09:29.421Z,14.30
2023-05-05T05:11:59.801Z,14.50
2023-05-05T05:14:27.970Z,14.60
2023-05-05T05:16:54.570Z,14.80
2023-05-05T05:19:21.278Z,14.80
2023-05-05T05:21:47.811Z,15.00
2023-05-05T05:24:14.321Z,15.00
2023-05-05T05:26:40.914Z,15.10
2023-05-05T05:29:07.436Z,15.10
2023-05-05T05:31:34.469Z,15.40
2023-05-05T05:34:01.098Z,16.30
2023-05-05T05:36:27.646Z,17.30
2023-05-05T05:38:54.153Z,18.70
2023-05-05T05:41:21.554Z,20.80
2023-05-05T05:43:48.049Z,21.30
2023-05-05T05:46:14.621Z,21.50
2023-05-05T05:48:41.261Z,21.30
2023-05-05T05:51:07.798Z,21.10
2023-05-05T05:53:34.341Z,21.30
2023-05-05T05:56:01.463Z,23.10
2023-05-05T05:58:28.047Z,25.20
2023-05-05T06:00:54.617Z,27.00
2023-05-05T06:03:21.348Z,27.70
2023-05-05T06:05:48.035Z,28.20
2023-05-05T06:08:14.556Z,28.40
2023-05-05T06:10:41.969Z,28.70
2023-05-05T06:13:08.623Z,28.20
2023-05-05T06:15:35.369Z,27.50
2023-05-05T06:18:02.161Z,27.10
2023-05-05T06:20:28.795Z,26.70
2023-05-05T06:22:55.343Z,26.30
2023-05-05T06:25:21.989Z,25.90
2023-05-05T06:27:48.780Z,25.70
2023-05-05T06:30:15.399Z,25.50
2023-05-05T06:32:41.965Z,25.40
2023-05-05T06:35:08.966Z,25.20
2023-05-05T06:37:35.857Z,25.20
2023-05-05T06:40:02.402Z,25.20
2023-05-05T06:42:30.722Z,25.10
2023-05-05T06:44:57.245Z,25.00
2023-05-05T06:47:23.795Z,24.90
2023-05-05T06:49:50.348Z,24.80
2023-05-05T06:52:16.852Z,24.70
2023-05-05T06:54:43.578Z,24.70
2023-05-05T06:57:10.123Z,24.70
2023-05-05T06:59:36.980Z,24.80
2023-05-05T07:02:03.537Z,24.90
2023-05-05T07:04:30.279Z,25.00
2023-05-05T07:06:58.342Z,25.20
2023-05-05T07:09:25.181Z,25.20
2023-05-05T07:11:51.864Z,25.30
2023-05-05T07:14:19.006Z,25.50
2023-05-05T07:16:46.510Z,25.60
2023-05-05T07:19:13.071Z,25.80
2023-05-05T07:21:39.704Z,26.00
2023-05-05T07:24:06.622Z,26.10
2023-05-05T07:26:33.219Z,26.40
2023-05-05T07:28:59.977Z,26.50
2023-05-05T07:31:26.866Z,26.70
2023-05-05T07:33:53.704Z,26.80
2023-05-05T07:36:20.577Z,26.90
2023-05-05T07:38:47.265Z,27.00
2023-05-05T07:41:14.085Z,27.00
2023-05-05T07:43:44.068Z,27.00
2023-05-05T07:46:11.372Z,26.90
2023-05-05T07:48:41.471Z,26.80
2023-05-05T07:51:08.809Z,27.00
2023-05-05T07:53:35.582Z,27.10
2023-05-05T07:56:02.251Z,27.30
2023-05-05T07:58:28.963Z,27.50
2023-05-05T08:00:55.544Z,27.60
2023-05-05T08:03:24.377Z,27.70
2023-05-05T08:05:53.438Z,27.80
2023-05-05T08:08:22.032Z,27.80
2023-05-05T08:10:49.702Z,27.80
2023-05-05T08:13:16.412Z,27.80
2023-05-05T08:15:45.019Z,27.80
2023-05-05T08:18:11.686Z,27.90
2023-05-05T08:20:38.351Z,27.90
2023-05-05T08:23:05.447Z,28.00
2023-05-05T08:25:32.082Z,28.00
2023-05-05T08:27:58.725Z,28.10
2023-05-05T08:30:25.395Z,28.20
2023-05-05T08:32:52.061Z,28.30
2023-05-05T08:35:18.850Z,28.30
2023-05-05T08:37:45.562Z,28.30
2023-05-05T08:40:14.174Z,28.30
2023-05-05T08:42:41.707Z,28.30
2023-05-05T08:45:09.771Z,28.20
2023-05-05T08:47:37.597Z,28.20
2023-05-05T08:50:06.014Z,28.30
2023-05-05T08:52:39.300Z,28.30
2023-05-05T08:55:10.084Z,28.40
2023-05-05T08:57:45.790Z,28.50
2023-05-05T09:00:13.116Z,28.50
2023-05-05T09:02:40.480Z,28.60
2023-05-05T09:05:07.976Z,28.60
2023-05-05T09:07:34.686Z,28.60
2023-05-05T09:10:03.140Z,28.70
2023-05-05T09:12:32.759Z,28.80
2023-05-05T09:15:03.468Z,28.90
2023-05-05T09:17:30.301Z,29.00
2023-05-05T09:20:09.449Z,29.10
2023-05-05T09:22:42.500Z,29.10
2023-05-05T09:25:11.018Z,29.20
2023-05-05T09:27:38.984Z,29.30
2023-05-05T09:30:06.012Z,29.40
2023-05-05T09:32:48.874Z,29.50
2023-05-05T09:35:16.582Z,29.70
2023-05-05T09:37:43.453Z,30.00
2023-05-05T09:40:10.487Z,30.20
2023-05-05T09:42:37.843Z,30.40
2023-05-05T09:45:24.987Z,30.60
2023-05-05T09:47:54.693Z,30.80
2023-05-05T09:50:23.466Z,30.80
2023-05-05T09:52:59.238Z,30.70
2023-05-05T09:55:25.899Z,30.70
2023-05-05T09:57:52.704Z,30.60
2023-05-05T10:00:19.432Z,30.60
2023-05-05T10:02:46.351Z,30.60
2023-05-05T10:05:14.214Z,30.40
2023-05-05T10:07:42.031Z,30.20
2023-05-05T10:10:13.263Z,30.10
2023-05-05T10:12:41.131Z,30.00
2023-05-05T10:15:08.823Z,29.90
2023-05-05T10:17:54.295Z,29.90
2023-05-05T10:20:33.342Z,30.00
2023-05-05T10:23:01.748Z,29.90
2023-05-05T10:25:33.784Z,30.00
2023-05-05T10:28:01.204Z,30.10
2023-05-05T10:30:31.793Z,30.30
2023-05-05T10:33:30.207Z,30.50
2023-05-05T10:35:57.187Z,30.60
2023-05-05T10:38:26.866Z,30.60
2023-05-05T10:40:55.227Z,30.70
2023-05-05T10:43:21.991Z,30.80
2023-05-05T10:45:48.962Z,30.90
2023-05-05T10:48:21.055Z,31.10
2023-05-05T10:50:51.077Z,31.20
2023-05-05T10:53:26.063Z,31.20
2023-05-05T10:55:57.291Z,31.10
2023-05-05T10:58:43.648Z,31.10
2023-05-05T11:01:34.985Z,31.00
2023-05-05T11:04:18.092Z,31.00
2023-05-05T11:07:03.486Z,31.00
2023-05-05T11:09:30.048Z,31.00
2023-05-05T11:12:04.123Z,31.00
2023-05-05T11:14:30.685Z,30.80
2023-05-05T11:16:57.256Z,30.70
2023-05-05T11:19:42.221Z,30.50
2023-05-05T11:22:09.001Z,30.30
2023-05-05T11:24:39.801Z,30.10
2023-05-05T11:27:06.433Z,29.90
2023-05-05T11:29:53.024Z,29.80
2023-05-05T11:32:19.909Z,29.70
2023-05-05T11:34:49.981Z,29.70
2023-05-05T11:37:17.143Z,29.60
2023-05-05T11:39:51.042Z,29.60
2023-05-05T11:42:23.618Z,29.70
2023-05-05T11:44:51.097Z,29.60
2023-05-05T11:47:17.678Z,29.60
2023-05-05T11:49:44.300Z,29.50
2023-05-05T11:52:14.145Z,29.40
2023-05-05T11:54:50.668Z,29.30
2023-05-05T11:57:26.913Z,29.20
2023-05-05T11:59:55.174Z,29.10
2023-05-05T12:02:22.502Z,29.00
2023-05-05T12:04:49.317Z,28.90
2023-05-05T12:07:19.443Z,28.70
2023-05-05T12:09:46.696Z,28.60
2023-05-05T12:12:13.361Z,28.50
2023-05-05T12:14:47.296Z,28.30
2023-05-05T12:17:13.881Z,28.20
2023-05-05T12:19:50.808Z,28.20
2023-05-05T12:22:21.638Z,28.10
2023-05-05T12:24:58.223Z,28.20
2023-05-05T12:27:26.415Z,28.20
2023-05-05T12:29:55.094Z,28.10
2023-05-05T12:32:21.729Z,28.00
2023-05-05T12:34:48.942Z,27.80
2023-05-05T12:37:16.839Z,27.70
2023-05-05T12:39:43.508Z,27.60
2023-05-05T12:42:10.051Z,27.30
2023-05-05T12:44:37.233Z,27.10
2023-05-05T12:47:04.622Z,27.00
2023-05-05T12:49:34.177Z,26.80
2023-05-05T12:52:00.730Z,26.60
2023-05-05T12:54:30.316Z,26.40
2023-05-05T12:56:57.277Z,26.30
2023-05-05T12:59:24.223Z,26.20
2023-05-05T13:01:55.341Z,26.00
2023-05-05T13:04:23.321Z,25.90
2023-05-05T13:06:54.025Z,25.80
2023-05-05T13:09:25.071Z,25.70
2023-05-05T13:11:52.541Z,25.50
2023-05-05T13:14:19.239Z,25.40
2023-05-05T13:16:46.053Z,25.30
2023-05-05T13:19:12.593Z,25.30
2023-05-05T13:21:39.132Z,25.20
2023-05-05T13:24:23.038Z,25.30
2023-05-05T13:26:52.689Z,25.50
2023-05-05T13:29:19.317Z,25.80
2023-05-05T13:31:45.955Z,26.10
2023-05-05T13:34:12.535Z,26.50
2023-05-05T13:36:39.100Z,26.70
2023-05-05T13:39:05.705Z,27.00
2023-05-05T13:41:32.230Z,27.20
2023-05-05T13:43:58.777Z,27.50
2023-05-05T13:46:25.357Z,27.60
2023-05-05T13:48:56.052Z,27.80
2023-05-05T13:51:23.051Z,27.90
2023-05-05T13:53:49.629Z,28.00
2023-05-05T13:56:17.786Z,28.10
2023-05-05T13:58:44.394Z,28.10
2023-05-05T14:01:11.027Z,28.10
2023-05-05T14:03:39.478Z,28.10
2023-05-05T14:06:06.603Z,28.10
2023-05-05T14:08:33.124Z,28.20
2023-05-05T14:10:59.696Z,28.20
2023-05-05T14:13:26.674Z,28.20
2023-05-05T14:15:53.720Z,28.30
2023-05-05T14:18:20.755Z,28.30
2023-05-05T14:20:47.279Z,28.30
2023-05-05T14:23:13.829Z,28.30
2023-05-05T14:25:40.368Z,28.30
2023-05-05T14:28:07.307Z,28.30
2023-05-05T14:30:33.894Z,28.30
2023-05-05T14:33:01.308Z,28.30
2023-05-05T14:35:27.957Z,28.30
2023-05-05T14:37:54.465Z,28.40
2023-05-05T14:40:21.048Z,28.40
2023-05-05T14:42:48.487Z,28.40
2023-05-05T14:45:15.010Z,28.30
2023-05-05T14:47:41.545Z,28.20
2023-05-05T14:50:09.709Z,28.10
2023-05-05T14:52:37.171Z,28.20
2023-05-05T14:55:03.790Z,28.10
2023-05-05T14:57:30.322Z,28.20
2023-05-05T14:59:56.950Z,28.20
2023-05-05T15:02:23.614Z,28.20
2023-05-05T15:04:50.295Z,28.00
2023-05-05T15:07:16.835Z,27.90
2023-05-05T15:09:43.354Z,27.80
2023-05-05T15:12:09.878Z,27.70
2023-05-05T15:14:36.654Z,27.60
2023-05-05T15:17:03.185Z,27.60
2023-05-05T15:19:29.693Z,27.50
2023-05-05T15:21:56.209Z,27.50
2023-05-05T15:24:22.765Z,27.50
2023-05-05T15:26:49.283Z,27.50
2023-05-05T15:29:15.795Z,27.50
2023-05-05T15:31:42.463Z,27.50
2023-05-05T15:34:09.024Z,27.40
2023-05-05T15:36:35.606Z,27.30
2023-05-05T15:39:02.235Z,27.20
2023-05-05T15:41:29.378Z,27.10
2023-05-05T15:43:55.988Z,27.10
2023-05-05T15:46:22.568Z,27.10
2023-05-05T15:48:49.107Z,27.10
2023-05-05T15:51:16.380Z,27.10
2023-05-05T15:53:42.938Z,27.10
2023-05-05T15:56:11.580Z,27.00
2023-05-05T15:58:38.151Z,27.00
2023-05-05T16:01:04.769Z,26.80
2023-05-05T16:03:31.510Z,26.80
2023-05-05T16:05:58.241Z,26.70
2023-05-05T16:08:24.795Z,26.70
2023-05-05T16:10:51.295Z,26.60
2023-05-05T16:13:18.358Z,26.60
2023-05-05T16:15:44.965Z,26.60
2023-05-05T16:18:11.653Z,26.50
2023-05-05T16:20:38.191Z,26.40
2023-05-05T16:23:04.809Z,26.30
2023-05-05T16:25:31.406Z,26.30
2023-05-05T16:27:57.984Z,26.30
2023-05-05T16:30:24.509Z,26.20
2023-05-05T16:32:51.788Z,26.20
2023-05-05T16:35:18.481Z,26.10
2023-05-05T16:37:45.040Z,26.00
2023-05-05T16:40:12.047Z,26.00
2023-05-05T16:42:38.660Z,25.90
2023-05-05T16:45:06.618Z,25.80
2023-05-05T16:47:33.316Z,25.70
2023-05-05T16:49:59.893Z,25.60
2023-05-05T16:52:26.491Z,25.50
2023-05-05T16:54:55.547Z,25.40
2023-05-05T16:57:22.614Z,25.30
2023-05-05T16:59:49.399Z,25.30
2023-05-05T17:02:15.970Z,25.20
2023-05-05T17:04:42.480Z,25.10
2023-05-05T17:07:08.982Z,25.00
2023-05-05T17:09:35.803Z,24.90
2023-05-05T17:12:04.050Z,24.80
2023-05-05T17:14:31.027Z,24.70
2023-05-05T17:16:57.785Z,24.70
2023-05-05T17:19:24.385Z,24.60
2023-05-05T17:21:50.898Z,24.50
2023-05-05T17:24:17.431Z,24.40
2023-05-05T17:26:44.092Z,24.30
2023-05-05T17:29:12.912Z,24.20
2023-05-05T17:31:39.768Z,24.20
2023-05-05T17:34:06.339Z,24.10
2023-05-05T17:36:33.558Z,24.00
2023-05-05T17:39:00.147Z,23.90
2023-05-05T17:41:26.970Z,23.90
2023-05-05T17:43:53.512Z,23.80
2023-05-05T17:46:20.156Z,23.80
2023-05-05T17:48:46.797Z,23.70
2023-05-05T17:51:13.348Z,23.60
2023-05-05T17:53:39.931Z,23.40
2023-05-05T17:56:08.728Z,23.30
2023-05-05T17:58:35.672Z,23.20
2023-05-05T18:01:02.251Z,23.10
2023-05-05T18:03:28.891Z,23.00
2023-05-05T18:05:55.998Z,22.70
2023-05-05T18:08:22.508Z,22.50
2023-05-05T18:10:49.037Z,22.20
2023-05-05T18:15:43.512Z,21.70
2023-05-05T18:18:10.117Z,21.40
2023-05-05T18:20:36.670Z,21.20
2023-05-05T18:23:03.200Z,20.90
2023-05-05T18:25:29.948Z,20.70
2023-05-05T18:27:56.493Z,20.50
2023-05-05T18:30:23.016Z,20.30
2023-05-05T18:32:49.611Z,20.20
2023-05-05T18:35:16.584Z,20.10
2023-05-05T18:37:43.183Z,20.00
2023-05-05T18:40:10.127Z,19.80
2023-05-05T18:42:36.681Z,19.70
2023-05-05T18:45:03.327Z,19.60
2023-05-05T18:47:29.880Z,19.50
2023-05-05T18:49:56.429Z,19.40
2023-05-05T18:52:23.032Z,19.30
2023-05-05T18:54:49.551Z,19.30
2023-05-05T18:57:16.215Z,19.20
2023-05-05T18:59:42.761Z,19.20
2023-05-05T19:02:09.308Z,19.10
2023-05-05T19:04:37.815Z,19.10
2023-05-05T19:07:04.789Z,19.00
2023-05-05T19:09:31.389Z,19.00
2023-05-05T19:11:57.949Z,19.00
2023-05-05T19:14:24.500Z,18.90
2023-05-05T19:16:51.139Z,18.90
2023-05-05T19:19:18.158Z,18.90
2023-05-05T19:21:44.696Z,18.80
2023-05-05T19:24:11.632Z,18.80
2023-05-05T19:26:38.179Z,18.80
2023-05-05T19:29:04.696Z,18.80
2023-05-05T19:31:31.544Z,18.80
2023-05-05T19:33:59.520Z,18.70
2023-05-05T19:36:26.211Z,18.70
2023-05-05T19:38:52.737Z,18.70
2023-05-05T19:41:19.446Z,18.70
2023-05-05T19:43:50.073Z,18.60
2023-05-05T19:46:17.157Z,18.60
2023-05-05T19:48:44.280Z,18.50
2023-05-05T19:51:10.877Z,18.50
2023-05-05T19:53:37.430Z,18.50
2023-05-05T19:56:04.823Z,18.50
2023-05-05T19:58:33.965Z,18.40
2023-05-05T20:01:00.521Z,18.40
2023-05-05T20:03:27.203Z,18.40
2023-05-05T20:05:53.755Z,18.40
2023-05-05T20:08:20.280Z,18.30
2023-05-05T20:10:46.860Z,18.30
2023-05-05T20:13:13.500Z,18.30
2023-05-05T20:15:40.074Z,18.20
2023-05-05T20:18:06.785Z,18.20
2023-05-05T20:20:33.476Z,18.20
2023-05-05T20:22:59.977Z,18.20
2023-05-05T20:25:26.829Z,18.10
2023-05-05T20:27:53.358Z,18.10
2023-05-05T20:30:20.058Z,18.10
2023-05-05T20:32:46.923Z,18.10
2023-05-05T20:35:13.473Z,18.10
2023-05-05T20:37:40.046Z,18.00
2023-05-05T20:40:07.343Z,18.00
2023-05-05T20:42:34.129Z,18.00
2023-05-05T20:45:01.129Z,18.00
2023-05-05T20:47:27.739Z,17.90
2023-05-05T20:49:54.317Z,17.90
2023-05-05T20:52:20.835Z,17.90
2023-05-05T20:54:47.354Z,17.80
2023-05-05T20:57:14.210Z,17.80
2023-05-05T20:59:40.713Z,17.80
2023-05-05T21:02:07.352Z,17.80
2023-05-05T21:04:33.925Z,17.80
2023-05-05T21:07:00.603Z,17.80
2023-05-05T21:09:27.244Z,17.80
2023-05-05T21:11:53.878Z,17.80
2023-05-05T21:14:20.425Z,17.70
2023-05-05T21:16:48.130Z,17.70
2023-05-05T21:19:14.725Z,17.60
2023-05-05T21:21:41.238Z,17.60
2023-05-05T21:24:08.245Z,17.60
2023-05-05T21:26:34.770Z,17.60
2023-05-05T21:29:01.485Z,17.60
2023-05-05T21:31:28.160Z,17.60
2023-05-05T21:33:54.745Z,17.60
2023-05-05T21:36:21.296Z,17.60
2023-05-05T21:38:47.928Z,17.50
2023-05-05T21:41:14.506Z,17.60
2023-05-05T21:43:41.101Z,17.50
2023-05-05T21:46:07.728Z,17.50
2023-05-05T21:48:34.389Z,17.50
2023-05-05T21:51:00.983Z,17.40
2023-05-05T21:53:27.517Z,17.40
2023-05-05T21:55:54.281Z,17.40
2023-05-05T21:58:20.889Z,17.40
2023-05-05T22:00:51.035Z,17.40
2023-05-05T22:03:19.333Z,17.40
2023-05-05T22:05:46.331Z,17.40
2023-05-05T22:08:12.991Z,17.40
2023-05-05T22:10:39.677Z,17.30
2023-05-05T22:13:06.331Z,17.30
2023-05-05T22:15:42.654Z,17.30
2023-05-05T22:18:12.969Z,17.30
2023-05-05T22:20:40.408Z,17.30
2023-05-05T22:23:07.218Z,17.30
2023-05-05T22:25:33.741Z,17.30
2023-05-05T22:28:00.516Z,17.30
2023-05-05T22:30:27.026Z,17.30
2023-05-05T22:32:53.612Z,17.30
2023-05-05T22:35:20.195Z,17.30
2023-05-05T22:37:46.741Z,17.30
2023-05-05T22:40:13.499Z,17.30
2023-05-05T22:42:40.584Z,17.30
2023-05-05T22:45:08.527Z,17.30
2023-05-05T22:47:35.301Z,17.30
2023-05-05T22:50:01.918Z,17.30
2023-05-05T22:52:28.968Z,17.30
2023-05-05T22:54:55.684Z,17.30
2023-05-05T22:57:22.228Z,17.30
2023-05-05T22:59:48.804Z,17.30
2023-05-05T23:02:15.331Z,17.30
2023-05-05T23:04:43.211Z,17.20
2023-05-05T23:07:09.800Z,17.20
2023-05-05T23:09:36.357Z,17.20
2023-05-05T23:12:02.931Z,17.20
2023-05-05T23:14:29.672Z,17.20
2023-05-05T23:16:56.223Z,17.20
2023-05-05T23:19:24.050Z,17.10
2023-05-05T23:21:53.597Z,17.10
2023-05-05T23:24:21.422Z,17.10
2023-05-05T23:26:48.013Z,17.00
2023-05-05T23:29:14.552Z,16.90
2023-05-05T23:31:41.093Z,16.90
2023-05-05T23:34:07.744Z,16.80
2023-05-05T23:36:34.266Z,16.80
2023-05-05T23:39:00.791Z,16.80
2023-05-05T23:41:27.338Z,16.80
2023-05-05T23:43:53.858Z,16.70
2023-05-05T23:46:20.583Z,16.80
2023-05-05T23:48:47.166Z,16.80
2023-05-05T23:51:13.668Z,16.70
2023-05-05T23:53:40.208Z,16.70
2023-05-05T23:56:06.945Z,16.70
2023-05-05T23:58:33.537Z,16.70
